Time;durP1;ratioP1;P1;durP2;ratioP2;P2;SDS_P1;SDS_P2;PMS_P1;PMS_P2;Temp;Humidity;BMP_temperature;BMP_pressure;BME280_temperature;BME280_humidity;BME280_pressure;Samples;Min_cycle;Max_cycle;Signal;HPM_P1;HPM_P2
2022/10/21 00:01:39;;;;;;;11.60;10.50;;;;;;;;;;4932339;29;20616;-56
2022/10/21 00:04:05;;;;;;;13.10;11.40;;;;;;;;;;4928791;29;20205;-55
2022/10/21 00:06:31;;;;;;;13.03;9.73;;;;;;;;;;4938435;29;20192;-56
2022/10/21 00:08:57;;;;;;;13.37;11.50;;;;;;;;;;4931696;29;20294;-56
2022/10/21 00:11:23;;;;;;;12.63;11.00;;;;;;;;;;4913621;29;20192;-55
2022/10/21 00:13:49;;;;;;;13.00;10.10;;;;;;;;;;4927961;29;21112;-56
2022/10/21 00:16:17;;;;;;;13.40;10.60;;;;;;;;;;4931379;29;20213;-56
2022/10/21 00:18:44;;;;;;;17.27;10.97;;;;;;;;;;4911958;29;20928;-56
2022/10/21 00:21:12;;;;;;;14.13;11.27;;;;;;;;;;4921937;29;20207;-56
2022/10/21 00:23:39;;;;;;;12.43;10.57;;;;;;;;;;4908786;29;20790;-57
2022/10/21 00:26:05;;;;;;;10.70;9.60;;;;;;;;;;4928660;29;20173;-55
2022/10/21 00:28:33;;;;;;;12.73;10.47;;;;;;;;;;4905532;29;20201;-56
2022/10/21 00:30:59;;;;;;;13.63;10.50;;;;;;;;;;4908205;29;20177;-56
2022/10/21 00:33:26;;;;;;;11.07;9.73;;;;;;;;;;4930197;29;20236;-55
2022/10/21 00:35:53;;;;;;;13.43;11.57;;;;;;;;;;4930043;29;20181;-56
2022/10/21 00:38:20;;;;;;;11.80;10.43;;;;;;;;;;4926771;29;20350;-55
2022/10/21 00:40:46;;;;;;;11.97;10.43;;;;;;;;;;4931696;29;20773;-55
2022/10/21 00:43:12;;;;;;;12.57;10.17;;;;;;;;;;4914204;29;20209;-55
2022/10/21 00:45:50;;;;;;;12.30;9.87;;;;;;;;;;4900774;29;20258;-55
2022/10/21 00:48:32;;;;;;;10.23;9.17;;;;;;;;;;4928560;29;20398;-55
2022/10/21 00:50:59;;;;;;;11.10;8.97;;;;;;;;;;4923199;29;20545;-55
2022/10/21 00:53:26;;;;;;;11.07;9.83;;;;;;;;;;4930105;29;20467;-55
2022/10/21 00:55:55;;;;;;;15.43;10.80;;;;;;;;;;4911470;29;20185;-55
2022/10/21 00:58:23;;;;;;;10.40;9.37;;;;;;;;;;4902261;28;20339;-55
2022/10/21 01:00:54;;;;;;;12.77;9.70;;;;;;;;;;4925494;29;20181;-56
2022/10/21 01:03:22;;;;;;;17.33;8.90;;;;;;;;;;4928921;29;20288;-55
2022/10/21 01:05:48;;;;;;;12.00;9.30;;;;;;;;;;4927657;29;20269;-55
2022/10/21 01:08:15;;;;;;;11.43;9.87;;;;;;;;;;4907666;29;20192;-56
2022/10/21 01:10:42;;;;;;;9.27;8.43;;;;;;;;;;4899581;29;20694;-56
2022/10/21 01:13:34;;;;;;;9.80;8.80;;;;;;;;;;4924811;29;22156;-55
2022/10/21 01:16:18;;;;;;;10.63;8.70;;;;;;;;;;4900718;29;20181;-55
2022/10/21 01:19:04;;;;;;;9.90;8.90;;;;;;;;;;4902544;29;20272;-56
2022/10/21 01:21:37;;;;;;;9.63;8.67;;;;;;;;;;4923696;29;20166;-55
2022/10/21 01:24:14;;;;;;;12.50;8.53;;;;;;;;;;4900471;29;20630;-55
2022/10/21 01:26:57;;;;;;;8.80;7.77;;;;;;;;;;4924790;29;20276;-55
2022/10/21 01:29:27;;;;;;;9.03;8.20;;;;;;;;;;4929310;29;20185;-56
2022/10/21 01:31:53;;;;;;;9.03;8.13;;;;;;;;;;4907991;29;20186;-56
2022/10/21 01:34:26;;;;;;;7.70;7.00;;;;;;;;;;4924621;29;20199;-56
2022/10/21 01:36:56;;;;;;;10.13;8.20;;;;;;;;;;4930140;29;20197;-56
2022/10/21 01:39:31;;;;;;;8.80;7.90;;;;;;;;;;4923046;29;20601;-56
2022/10/21 01:42:16;;;;;;;9.03;8.00;;;;;;;;;;4926429;29;20201;-56
2022/10/21 01:44:47;;;;;;;7.90;7.20;;;;;;;;;;4924158;29;20220;-56
2022/10/21 01:47:14;;;;;;;9.50;6.23;;;;;;;;;;4911094;29;20254;-56
2022/10/21 01:49:43;;;;;;;8.63;7.47;;;;;;;;;;4907102;29;20268;-56
2022/10/21 01:52:10;;;;;;;9.00;7.00;;;;;;;;;;4926712;29;20192;-56
2022/10/21 01:54:41;;;;;;;8.97;7.30;;;;;;;;;;4922715;29;20583;-56
2022/10/21 01:57:08;;;;;;;7.33;6.57;;;;;;;;;;4924791;28;20305;-56
2022/10/21 01:59:35;;;;;;;7.73;7.03;;;;;;;;;;4902897;29;20188;-56
2022/10/21 02:02:04;;;;;;;7.80;7.00;;;;;;;;;;4912034;29;20346;-56
2022/10/21 02:04:31;;;;;;;8.13;7.27;;;;;;;;;;4917498;29;20213;-56
2022/10/21 02:06:58;;;;;;;7.60;6.87;;;;;;;;;;4927482;29;20951;-56
2022/10/21 02:09:24;;;;;;;7.03;6.43;;;;;;;;;;4926539;29;20189;-56
2022/10/21 02:11:52;;;;;;;8.67;7.13;;;;;;;;;;4911314;29;20651;-56
2022/10/21 02:14:27;;;;;;;7.20;6.57;;;;;;;;;;4907920;29;20188;-56
2022/10/21 02:16:54;;;;;;;9.83;6.93;;;;;;;;;;4909497;29;20188;-56
2022/10/21 02:19:20;;;;;;;7.23;6.63;;;;;;;;;;4927352;29;20216;-56
2022/10/21 02:21:48;;;;;;;7.73;6.93;;;;;;;;;;4924774;29;20281;-56
2022/10/21 02:24:22;;;;;;;7.37;6.23;;;;;;;;;;4925038;29;20264;-56
2022/10/21 02:26:49;;;;;;;7.53;6.53;;;;;;;;;;4899945;29;20250;-56
2022/10/21 02:29:20;;;;;;;8.57;6.23;;;;;;;;;;4905691;29;20189;-56
2022/10/21 02:31:53;;;;;;;6.87;6.17;;;;;;;;;;4921615;29;20716;-56
2022/10/21 02:34:33;;;;;;;7.70;6.93;;;;;;;;;;4924988;29;20455;-55
2022/10/21 02:37:00;;;;;;;8.07;6.07;;;;;;;;;;4912067;29;20220;-56
2022/10/21 02:39:30;;;;;;;7.80;6.20;;;;;;;;;;4925009;29;22432;-56
2022/10/21 02:42:04;;;;;;;6.03;5.53;;;;;;;;;;4906353;29;20193;-56
2022/10/21 02:44:31;;;;;;;6.73;6.03;;;;;;;;;;4907869;29;20359;-56
2022/10/21 02:46:57;;;;;;;6.90;5.33;;;;;;;;;;4911488;29;20213;-56
2022/10/21 02:49:23;;;;;;;6.80;6.10;;;;;;;;;;4926821;29;20547;-55
2022/10/21 02:51:49;;;;;;;12.67;5.33;;;;;;;;;;4924770;29;20226;-56
2022/10/21 02:54:15;;;;;;;9.67;5.43;;;;;;;;;;4925414;29;20193;-56
2022/10/21 02:56:41;;;;;;;7.83;6.20;;;;;;;;;;4903591;28;20312;-56
2022/10/21 02:59:08;;;;;;;5.70;5.20;;;;;;;;;;4939093;29;20181;-55
2022/10/21 03:01:35;;;;;;;7.20;5.10;;;;;;;;;;4902044;29;20197;-55
2022/10/21 03:04:01;;;;;;;6.47;5.57;;;;;;;;;;4907521;29;20627;-55
2022/10/21 03:06:27;;;;;;;5.93;5.20;;;;;;;;;;4925453;29;20613;-55
2022/10/21 03:08:53;;;;;;;5.53;4.97;;;;;;;;;;4894515;29;20197;-55
2022/10/21 03:11:19;;;;;;;6.17;4.77;;;;;;;;;;4922947;29;20182;-55
2022/10/21 03:13:45;;;;;;;5.53;4.93;;;;;;;;;;4922706;29;20200;-55
2022/10/21 03:16:11;;;;;;;7.53;5.40;;;;;;;;;;4910346;29;20193;-55
2022/10/21 03:18:37;;;;;;;5.30;4.80;;;;;;;;;;4922885;29;20267;-55
2022/10/21 03:21:04;;;;;;;5.57;5.00;;;;;;;;;;4928685;29;20190;-55
2022/10/21 03:23:30;;;;;;;5.13;4.63;;;;;;;;;;4925514;29;20244;-55
2022/10/21 03:25:56;;;;;;;6.13;5.33;;;;;;;;;;4928172;29;20578;-55
2022/10/21 03:28:22;;;;;;;4.93;4.50;;;;;;;;;;4908001;29;20213;-55
2022/10/21 03:30:48;;;;;;;4.53;4.23;;;;;;;;;;4920604;29;20594;-55
2022/10/21 03:33:14;;;;;;;6.60;5.83;;;;;;;;;;4927999;29;20931;-56
2022/10/21 03:35:41;;;;;;;6.20;4.67;;;;;;;;;;4905827;29;20254;-55
2022/10/21 03:38:07;;;;;;;6.00;4.30;;;;;;;;;;4923718;29;20182;-56
2022/10/21 03:40:33;;;;;;;6.73;4.53;;;;;;;;;;4897525;29;20202;-55
2022/10/21 03:42:59;;;;;;;5.33;4.43;;;;;;;;;;4924762;29;20273;-56
2022/10/21 03:45:26;;;;;;;4.83;4.40;;;;;;;;;;4919983;29;20622;-56
2022/10/21 03:47:52;;;;;;;5.00;4.03;;;;;;;;;;4925682;29;20240;-56
2022/10/21 03:50:18;;;;;;;4.43;4.03;;;;;;;;;;4897401;29;20186;-56
2022/10/21 03:52:45;;;;;;;4.63;4.23;;;;;;;;;;4926158;29;20217;-56
2022/10/21 03:55:11;;;;;;;4.60;4.20;;;;;;;;;;4921363;29;21022;-55
2022/10/21 03:57:37;;;;;;;5.77;4.30;;;;;;;;;;4922799;28;20236;-55
2022/10/21 04:00:03;;;;;;;4.40;4.00;;;;;;;;;;4917822;29;20301;-55
2022/10/21 04:02:30;;;;;;;4.40;4.00;;;;;;;;;;4897915;29;20189;-55
2022/10/21 04:04:56;;;;;;;4.10;3.80;;;;;;;;;;4907440;29;20712;-55
2022/10/21 04:07:22;;;;;;;5.97;4.00;;;;;;;;;;4927229;29;20589;-56
2022/10/21 04:09:48;;;;;;;6.77;4.07;;;;;;;;;;4926611;29;20185;-55
2022/10/21 04:12:15;;;;;;;5.73;4.17;;;;;;;;;;4906870;29;20182;-54
2022/10/21 04:14:42;;;;;;;4.17;3.70;;;;;;;;;;4894319;29;20621;-55
2022/10/21 04:17:08;;;;;;;4.50;4.10;;;;;;;;;;4922356;29;20406;-55
2022/10/21 04:19:35;;;;;;;4.40;4.00;;;;;;;;;;4911263;29;20181;-55
2022/10/21 04:22:01;;;;;;;4.70;4.30;;;;;;;;;;4911325;29;20216;-56
2022/10/21 04:24:28;;;;;;;6.87;4.20;;;;;;;;;;4922187;29;20208;-56
2022/10/21 04:26:54;;;;;;;6.23;4.43;;;;;;;;;;4905839;29;20189;-55
2022/10/21 04:29:24;;;;;;;5.47;4.97;;;;;;;;;;4923993;29;20200;-54
2022/10/21 04:31:51;;;;;;;4.43;3.90;;;;;;;;;;4922109;29;20206;-55
2022/10/21 04:34:17;;;;;;;4.80;4.10;;;;;;;;;;4925031;29;20209;-55
2022/10/21 04:36:43;;;;;;;6.60;3.83;;;;;;;;;;4907965;29;20576;-55
2022/10/21 04:39:10;;;;;;;4.53;3.93;;;;;;;;;;4906506;29;20216;-55
2022/10/21 04:41:36;;;;;;;5.03;4.53;;;;;;;;;;4901378;29;20590;-55
2022/10/21 04:44:03;;;;;;;5.10;4.60;;;;;;;;;;4928477;29;20280;-55
2022/10/21 04:46:29;;;;;;;4.10;3.70;;;;;;;;;;4906247;29;20784;-55
2022/10/21 04:48:56;;;;;;;6.73;4.57;;;;;;;;;;4924355;29;20178;-55
2022/10/21 04:51:23;;;;;;;9.80;4.23;;;;;;;;;;4927119;29;20261;-55
2022/10/21 04:53:49;;;;;;;3.90;3.50;;;;;;;;;;4902531;29;20265;-55
2022/10/21 04:56:16;;;;;;;4.23;3.83;;;;;;;;;;4903127;29;20186;-54
2022/10/21 04:58:42;;;;;;;7.63;4.17;;;;;;;;;;4906938;28;20376;-55
2022/10/21 05:01:09;;;;;;;4.60;4.20;;;;;;;;;;4922748;29;20288;-54
2022/10/21 05:03:35;;;;;;;4.07;3.63;;;;;;;;;;4895794;29;20216;-55
2022/10/21 05:06:02;;;;;;;4.47;4.07;;;;;;;;;;4920798;29;20272;-55
2022/10/21 05:08:29;;;;;;;4.10;3.73;;;;;;;;;;4894987;29;20266;-55
2022/10/21 05:10:59;;;;;;;4.20;3.80;;;;;;;;;;4926880;29;20867;-55
2022/10/21 05:13:25;;;;;;;4.50;4.10;;;;;;;;;;4907835;29;20209;-55
2022/10/21 05:15:51;;;;;;;4.23;3.63;;;;;;;;;;4922338;29;20574;-55
2022/10/21 05:18:17;;;;;;;5.93;3.90;;;;;;;;;;4926323;29;20177;-55
2022/10/21 05:20:49;;;;;;;5.00;4.20;;;;;;;;;;4929644;29;20185;-55
2022/10/21 05:23:16;;;;;;;4.03;3.60;;;;;;;;;;4925461;29;20190;-55
2022/10/21 05:26:06;;;;;;;4.30;3.90;;;;;;;;;;4926640;29;20181;-55
2022/10/21 05:28:33;;;;;;;6.87;3.70;;;;;;;;;;4907773;29;20213;-55
2022/10/21 05:31:00;;;;;;;3.97;3.57;;;;;;;;;;4898531;29;20186;-55
2022/10/21 05:33:27;;;;;;;3.70;3.40;;;;;;;;;;4927862;29;20188;-55
2022/10/21 05:36:06;;;;;;;5.20;3.10;;;;;;;;;;4908122;29;20189;-55
2022/10/21 05:38:33;;;;;;;4.00;3.50;;;;;;;;;;4915842;29;20248;-55
2022/10/21 05:40:59;;;;;;;3.77;3.30;;;;;;;;;;4925317;29;20601;-55
2022/10/21 05:43:29;;;;;;;3.87;3.43;;;;;;;;;;4904481;29;20215;-55
2022/10/21 05:45:56;;;;;;;4.63;3.50;;;;;;;;;;4930363;29;20600;-55
2022/10/21 05:48:22;;;;;;;4.87;4.47;;;;;;;;;;4922313;29;20590;-56
2022/10/21 05:50:51;;;;;;;4.00;3.47;;;;;;;;;;4911570;29;20528;-55
2022/10/21 05:53:23;;;;;;;3.90;3.60;;;;;;;;;;4931098;29;20241;-56
2022/10/21 05:56:00;;;;;;;5.87;3.40;;;;;;;;;;4898219;29;20185;-57
2022/10/21 05:58:27;;;;;;;6.53;3.47;;;;;;;;;;4930415;28;20229;-54
2022/10/21 06:00:57;;;;;;;4.10;3.73;;;;;;;;;;4917097;29;20573;-55
2022/10/21 06:03:24;;;;;;;3.60;3.30;;;;;;;;;;4911696;29;20272;-55
2022/10/21 06:05:53;;;;;;;4.17;3.40;;;;;;;;;;4920973;29;20178;-56
2022/10/21 06:08:19;;;;;;;4.63;3.57;;;;;;;;;;4926680;29;20279;-55
2022/10/21 06:10:49;;;;;;;3.47;3.17;;;;;;;;;;4913496;29;20200;-56
2022/10/21 06:13:15;;;;;;;6.73;3.60;;;;;;;;;;4917783;29;20257;-55
2022/10/21 06:15:41;;;;;;;7.07;3.50;;;;;;;;;;4909842;29;20186;-56
2022/10/21 06:18:07;;;;;;;5.10;3.53;;;;;;;;;;4925882;29;20189;-55
2022/10/21 06:20:34;;;;;;;5.20;3.87;;;;;;;;;;4909434;29;20181;-56
2022/10/21 06:23:00;;;;;;;5.37;3.10;;;;;;;;;;4913251;29;20181;-58
2022/10/21 06:25:26;;;;;;;3.67;3.33;;;;;;;;;;4898930;29;20221;-57
2022/10/21 06:28:02;;;;;;;4.93;3.13;;;;;;;;;;4911684;29;20683;-56
2022/10/21 06:30:28;;;;;;;4.27;3.30;;;;;;;;;;4901177;29;20177;-56
2022/10/21 06:32:55;;;;;;;4.63;3.67;;;;;;;;;;4917076;29;20651;-55
2022/10/21 06:35:21;;;;;;;3.33;2.83;;;;;;;;;;4913922;29;20181;-55
2022/10/21 06:37:48;;;;;;;5.53;2.87;;;;;;;;;;4908025;29;20200;-55
2022/10/21 06:40:21;;;;;;;5.73;3.43;;;;;;;;;;4898693;29;20186;-55
2022/10/21 06:42:50;;;;;;;4.17;2.90;;;;;;;;;;4929439;29;20619;-56
2022/10/21 06:45:16;;;;;;;5.07;2.97;;;;;;;;;;4912019;29;20206;-56
2022/10/21 06:47:42;;;;;;;3.50;3.20;;;;;;;;;;4929812;29;20188;-57
2022/10/21 06:50:09;;;;;;;4.93;3.20;;;;;;;;;;4931560;29;20185;-56
2022/10/21 06:52:35;;;;;;;3.20;2.90;;;;;;;;;;4933619;29;20218;-57
2022/10/21 06:55:01;;;;;;;3.40;3.07;;;;;;;;;;4924030;29;20504;-57
2022/10/21 06:57:28;;;;;;;3.00;2.70;;;;;;;;;;4909575;28;20231;-57
2022/10/21 06:59:54;;;;;;;3.10;2.90;;;;;;;;;;4915092;29;20645;-57
2022/10/21 07:02:22;;;;;;;3.93;2.83;;;;;;;;;;4907645;29;20494;-55
2022/10/21 07:04:51;;;;;;;3.50;2.93;;;;;;;;;;4933824;29;20193;-59
2022/10/21 07:07:17;;;;;;;3.20;2.57;;;;;;;;;;4916113;29;20181;-57
2022/10/21 07:09:44;;;;;;;3.47;2.73;;;;;;;;;;4929757;29;20208;-56
2022/10/21 07:12:10;;;;;;;4.13;3.28;;;;;;;;;;4907228;29;20514;-56
2022/10/21 07:14:36;;;;;;;3.60;3.30;;;;;;;;;;4922759;29;20277;-61
2022/10/21 07:17:03;;;;;;;7.17;3.30;;;;;;;;;;4905095;29;20195;-55
2022/10/21 07:19:29;;;;;;;5.37;3.20;;;;;;;;;;4931156;29;20675;-56
2022/10/21 07:21:55;;;;;;;3.33;2.80;;;;;;;;;;4928491;29;20185;-56
2022/10/21 07:24:22;;;;;;;3.33;2.63;;;;;;;;;;4911346;29;20209;-57
2022/10/21 07:26:48;;;;;;;2.93;2.70;;;;;;;;;;4920738;29;20180;-57
2022/10/21 07:29:14;;;;;;;2.67;2.47;;;;;;;;;;4924670;29;20170;-57
2022/10/21 07:31:40;;;;;;;3.57;2.67;;;;;;;;;;4928094;29;20200;-56
2022/10/21 07:34:08;;;;;;;3.40;3.10;;;;;;;;;;4930060;29;20254;-57
2022/10/21 07:36:36;;;;;;;3.07;2.87;;;;;;;;;;4915069;29;20737;-56
2022/10/21 07:39:03;;;;;;;3.90;2.80;;;;;;;;;;4926816;29;20178;-56
2022/10/21 07:41:38;;;;;;;3.57;3.00;;;;;;;;;;4926363;29;20188;-57
2022/10/21 07:44:05;;;;;;;3.17;2.97;;;;;;;;;;4928807;29;20284;-56
2022/10/21 07:46:32;;;;;;;2.83;2.63;;;;;;;;;;4912642;29;20199;-56
2022/10/21 07:48:58;;;;;;;2.73;2.53;;;;;;;;;;4920617;29;20268;-56
2022/10/21 07:51:25;;;;;;;5.67;2.63;;;;;;;;;;4926933;29;20601;-56
2022/10/21 07:53:52;;;;;;;3.77;3.03;;;;;;;;;;4922232;29;20187;-57
2022/10/21 07:56:24;;;;;;;4.47;2.80;;;;;;;;;;4930741;29;20248;-55
2022/10/21 07:58:52;;;;;;;3.20;3.00;;;;;;;;;;4923801;28;20692;-59
2022/10/21 08:01:19;;;;;;;3.40;2.73;;;;;;;;;;4914998;29;20177;-57
2022/10/21 08:03:45;;;;;;;3.30;3.00;;;;;;;;;;4929420;29;20209;-56
2022/10/21 08:06:13;;;;;;;3.93;3.47;;;;;;;;;;4931251;29;20254;-57
2022/10/21 08:08:40;;;;;;;3.53;2.90;;;;;;;;;;4928482;29;20177;-56
2022/10/21 08:11:07;;;;;;;4.27;3.70;;;;;;;;;;4912040;29;20218;-56
2022/10/21 08:13:34;;;;;;;4.00;3.40;;;;;;;;;;4913200;29;20186;-56
2022/10/21 08:16:00;;;;;;;3.50;3.10;;;;;;;;;;4914168;29;20611;-57
2022/10/21 08:18:27;;;;;;;4.83;2.80;;;;;;;;;;4908939;29;20668;-55
2022/10/21 08:20:54;;;;;;;3.87;3.20;;;;;;;;;;4915222;29;20188;-56
2022/10/21 08:23:22;;;;;;;5.67;3.27;;;;;;;;;;4910577;29;20185;-56
2022/10/21 08:25:50;;;;;;;3.53;3.13;;;;;;;;;;4911396;29;20189;-56
2022/10/21 08:28:17;;;;;;;3.00;2.80;;;;;;;;;;4930111;29;20763;-56
2022/10/21 08:30:44;;;;;;;3.97;3.17;;;;;;;;;;4931155;29;20161;-56
2022/10/21 08:33:11;;;;;;;3.43;3.20;;;;;;;;;;4930822;29;20215;-56
2022/10/21 08:35:37;;;;;;;5.40;3.10;;;;;;;;;;4924045;29;20189;-56
2022/10/21 08:38:04;;;;;;;4.97;3.07;;;;;;;;;;4931758;29;20189;-56
2022/10/21 08:40:38;;;;;;;4.63;3.67;;;;;;;;;;4912066;29;20192;-56
2022/10/21 08:43:28;;;;;;;3.67;3.20;;;;;;;;;;4899077;29;20869;-56
2022/10/21 08:46:00;;;;;;;5.87;3.23;;;;;;;;;;4926318;29;20232;-57
2022/10/21 08:48:29;;;;;;;3.23;2.93;;;;;;;;;;4899533;29;20698;-56
2022/10/21 08:50:57;;;;;;;4.43;3.43;;;;;;;;;;4896317;29;20186;-57
2022/10/21 08:53:23;;;;;;;4.27;3.30;;;;;;;;;;4913250;29;20174;-57
2022/10/21 08:55:52;;;;;;;4.30;3.90;;;;;;;;;;4931174;29;20324;-57
2022/10/21 08:58:20;;;;;;;4.10;3.60;;;;;;;;;;4914674;28;20247;-57
2022/10/21 09:01:15;;;;;;;4.43;3.77;;;;;;;;;;4914002;29;20529;-56
2022/10/21 09:03:53;;;;;;;4.93;3.93;;;;;;;;;;4907513;29;20660;-56
2022/10/21 09:06:23;;;;;;;5.00;3.40;;;;;;;;;;4913117;29;20178;-57
2022/10/21 09:08:59;;;;;;;4.70;3.57;;;;;;;;;;4915219;29;20171;-56
2022/10/21 09:11:34;;;;;;;5.10;3.57;;;;;;;;;;4917996;29;20169;-57
2022/10/21 09:14:07;;;;;;;3.93;3.57;;;;;;;;;;4911402;29;20184;-57
2022/10/21 09:16:36;;;;;;;6.90;3.83;;;;;;;;;;4911085;29;20173;-56
2022/10/21 09:19:15;;;;;;;3.67;3.30;;;;;;;;;;4901322;29;20174;-56
2022/10/21 09:22:03;;;;;;;5.73;3.87;;;;;;;;;;4925167;29;20207;-56
2022/10/21 09:24:38;;;;;;;6.07;4.20;;;;;;;;;;4929721;29;20934;-56
2022/10/21 09:27:09;;;;;;;5.90;4.20;;;;;;;;;;4908128;29;20189;-54
2022/10/21 09:29:45;;;;;;;4.57;4.17;;;;;;;;;;4912183;29;20170;-57
2022/10/21 09:32:12;;;;;;;4.00;3.47;;;;;;;;;;4904673;29;20189;-57
2022/10/21 09:34:43;;;;;;;4.10;3.73;;;;;;;;;;4923905;29;20217;-55
2022/10/21 09:37:30;;;;;;;4.87;4.37;;;;;;;;;;4912423;29;20192;-55
2022/10/21 09:40:16;;;;;;;7.93;3.87;;;;;;;;;;4913422;29;20275;-55
2022/10/21 09:42:45;;;;;;;6.43;4.30;;;;;;;;;;4936079;29;20173;-55
2022/10/21 09:45:31;;;;;;;4.07;3.37;;;;;;;;;;4926567;29;20411;-55
2022/10/21 09:48:03;;;;;;;4.17;3.80;;;;;;;;;;4910941;29;20173;-55
2022/10/21 09:50:31;;;;;;;6.17;4.37;;;;;;;;;;4926868;29;20299;-56
2022/10/21 09:53:01;;;;;;;4.30;3.93;;;;;;;;;;4911499;29;20166;-56
2022/10/21 09:55:29;;;;;;;5.60;4.60;;;;;;;;;;4912991;29;20285;-55
2022/10/21 09:57:57;;;;;;;5.27;4.13;;;;;;;;;;4931565;28;20737;-55
2022/10/21 10:00:40;;;;;;;4.57;3.77;;;;;;;;;;4929259;29;20169;-55
2022/10/21 10:03:07;;;;;;;6.87;3.87;;;;;;;;;;4909244;29;20682;-56
2022/10/21 10:05:35;;;;;;;4.70;3.87;;;;;;;;;;4923671;29;20252;-55
2022/10/21 10:08:18;;;;;;;5.33;4.10;;;;;;;;;;4917956;29;20189;-55
2022/10/21 10:10:48;;;;;;;5.33;4.40;;;;;;;;;;4926631;29;20177;-56
2022/10/21 10:13:17;;;;;;;4.37;3.97;;;;;;;;;;4910987;29;20700;-56
2022/10/21 10:15:43;;;;;;;5.30;4.20;;;;;;;;;;4915590;29;20679;-55
2022/10/21 10:18:22;;;;;;;7.40;4.83;;;;;;;;;;4925099;29;20269;-55
2022/10/21 10:21:18;;;;;;;7.40;4.13;;;;;;;;;;4910194;29;20648;-56
2022/10/21 10:23:52;;;;;;;5.27;4.00;;;;;;;;;;4894274;29;20625;-56
2022/10/21 10:26:29;;;;;;;4.67;4.20;;;;;;;;;;4899203;29;20202;-55
2022/10/21 10:28:59;;;;;;;5.10;4.47;;;;;;;;;;4921406;29;20544;-54
2022/10/21 10:31:33;;;;;;;4.33;3.90;;;;;;;;;;4922801;29;20181;-54
2022/10/21 10:34:05;;;;;;;5.43;4.47;;;;;;;;;;4929612;29;20183;-55
2022/10/21 10:36:36;;;;;;;9.30;4.33;;;;;;;;;;4920615;29;20189;-55
2022/10/21 10:39:04;;;;;;;4.73;4.27;;;;;;;;;;4919394;29;20473;-55
2022/10/21 10:41:35;;;;;;;4.30;3.77;;;;;;;;;;4914713;29;20193;-55
2022/10/21 10:44:08;;;;;;;5.40;4.30;;;;;;;;;;4929268;29;20205;-53
2022/10/21 10:46:35;;;;;;;12.67;11.37;;;;;;;;;;4925037;29;20652;-54
2022/10/21 10:49:13;;;;;;;47.30;42.30;;;;;;;;;;4914085;29;20478;-55
2022/10/21 10:51:41;;;;;;;48.37;43.17;;;;;;;;;;4927655;29;20668;-55
2022/10/21 10:54:07;;;;;;;101.57;91.13;;;;;;;;;;4928009;29;20188;-55
2022/10/21 10:56:44;;;;;;;154.00;137.87;;;;;;;;;;4910045;29;20190;-55
2022/10/21 10:59:13;;;;;;;122.70;110.20;;;;;;;;;;4909315;28;20539;-56
2022/10/21 11:01:46;;;;;;;108.73;97.83;;;;;;;;;;4921960;29;20185;-56
2022/10/21 11:04:23;;;;;;;105.13;94.53;;;;;;;;;;4925996;29;20530;-55
2022/10/21 11:06:56;;;;;;;95.43;85.30;;;;;;;;;;4912013;29;20599;-55
2022/10/21 11:09:23;;;;;;;74.83;67.07;;;;;;;;;;4916442;29;20200;-55
2022/10/21 11:11:52;;;;;;;63.80;57.20;;;;;;;;;;4929011;29;20174;-55
2022/10/21 11:14:19;;;;;;;55.40;49.93;;;;;;;;;;4912969;29;20178;-55
2022/10/21 11:17:05;;;;;;;53.23;45.93;;;;;;;;;;4924643;29;20628;-55
2022/10/21 11:19:41;;;;;;;36.60;31.97;;;;;;;;;;4934490;29;20189;-54
2022/10/21 11:22:30;;;;;;;25.40;18.63;;;;;;;;;;4932029;29;20588;-53
2022/10/21 11:25:04;;;;;;;9.17;8.03;;;;;;;;;;4910926;29;20349;-54
2022/10/21 11:27:45;;;;;;;12.00;9.43;;;;;;;;;;4912624;29;20186;-54
2022/10/21 11:30:12;;;;;;;8.33;7.40;;;;;;;;;;4911140;29;20185;-58
2022/10/21 11:32:45;;;;;;;6.53;5.50;;;;;;;;;;4912301;29;20179;-54
2022/10/21 11:35:23;;;;;;;7.13;4.53;;;;;;;;;;4911988;29;20273;-54
2022/10/21 11:37:59;;;;;;;5.37;4.37;;;;;;;;;;4910520;29;20584;-55
2022/10/21 11:40:25;;;;;;;7.10;4.47;;;;;;;;;;4928376;29;20645;-53
2022/10/21 11:42:52;;;;;;;4.77;4.10;;;;;;;;;;4930479;29;20257;-55
2022/10/21 11:45:26;;;;;;;6.73;3.90;;;;;;;;;;4930327;29;20201;-54
2022/10/21 11:48:12;;;;;;;5.70;3.50;;;;;;;;;;4922992;29;20626;-53
2022/10/21 11:50:38;;;;;;;7.10;3.87;;;;;;;;;;4924952;29;20633;-53
2022/10/21 11:53:26;;;;;;;4.07;3.20;;;;;;;;;;4911415;29;20205;-53
2022/10/21 11:56:02;;;;;;;4.87;3.50;;;;;;;;;;4933465;29;20235;-52
2022/10/21 11:58:28;;;;;;;3.33;3.03;;;;;;;;;;4914565;28;20240;-55
2022/10/21 12:01:22;;;;;;;4.37;3.07;;;;;;;;;;4911415;29;20272;-55
2022/10/21 12:03:55;;;;;;;3.87;3.10;;;;;;;;;;4916398;29;20221;-54
2022/10/21 12:06:27;;;;;;;4.73;3.90;;;;;;;;;;4923495;29;20224;-54
2022/10/21 12:08:53;;;;;;;3.80;3.20;;;;;;;;;;4908536;29;20204;-54
2022/10/21 12:11:32;;;;;;;4.53;3.00;;;;;;;;;;4907398;29;20923;-55
2022/10/21 12:14:03;;;;;;;6.63;3.30;;;;;;;;;;4906585;29;20178;-56
2022/10/21 12:16:32;;;;;;;5.97;3.67;;;;;;;;;;4907242;29;20701;-53
2022/10/21 12:19:00;;;;;;;4.37;3.27;;;;;;;;;;4919831;29;20185;-53
2022/10/21 12:21:32;;;;;;;3.73;3.30;;;;;;;;;;4924989;29;20257;-53
2022/10/21 12:24:06;;;;;;;3.20;2.90;;;;;;;;;;4927940;29;20783;-58
2022/10/21 12:26:42;;;;;;;5.13;3.43;;;;;;;;;;4906101;29;20642;-58
2022/10/21 12:29:24;;;;;;;4.23;2.97;;;;;;;;;;4924769;29;20320;-55
2022/10/21 12:31:55;;;;;;;4.37;3.10;;;;;;;;;;4907739;29;20184;-55
2022/10/21 12:34:24;;;;;;;3.90;3.10;;;;;;;;;;4924555;29;20664;-56
2022/10/21 12:36:54;;;;;;;3.27;3.07;;;;;;;;;;4921704;29;20180;-56
2022/10/21 12:39:33;;;;;;;3.37;2.90;;;;;;;;;;4904861;29;20177;-55
2022/10/21 12:42:11;;;;;;;2.83;2.60;;;;;;;;;;4898644;29;20624;-56
2022/10/21 12:44:39;;;;;;;4.10;3.30;;;;;;;;;;4909949;29;20208;-55
2022/10/21 12:47:21;;;;;;;3.90;3.00;;;;;;;;;;4924859;29;20351;-56
2022/10/21 12:50:02;;;;;;;3.37;2.83;;;;;;;;;;4898134;29;20177;-55
2022/10/21 12:52:29;;;;;;;2.87;2.57;;;;;;;;;;4911769;29;20731;-56
2022/10/21 12:54:56;;;;;;;3.13;2.83;;;;;;;;;;4908920;29;20196;-55
2022/10/21 12:57:36;;;;;;;3.10;2.80;;;;;;;;;;4933276;29;20213;-55
2022/10/21 13:00:24;;;;;;;2.80;2.60;;;;;;;;;;4927028;29;20180;-55
2022/10/21 13:03:01;;;;;;;3.97;2.80;;;;;;;;;;4930513;29;20177;-56
2022/10/21 13:05:37;;;;;;;3.10;2.80;;;;;;;;;;4921739;29;20703;-55
2022/10/21 13:08:22;;;;;;;3.33;3.03;;;;;;;;;;4907549;29;20580;-55
2022/10/21 13:13:37;;;;;;;6.40;2.90;;;;;;;;;;4920244;29;20523;-54
2022/10/21 13:16:19;;;;;;;2.77;2.50;;;;;;;;;;4908653;29;20534;-55
2022/10/21 13:19:11;;;;;;;3.07;2.87;;;;;;;;;;4899871;29;20606;-55
2022/10/21 13:21:37;;;;;;;4.60;3.00;;;;;;;;;;4901092;29;20242;-55
2022/10/21 13:24:24;;;;;;;3.60;3.30;;;;;;;;;;4904342;29;20649;-55
2022/10/21 13:26:55;;;;;;;3.60;2.53;;;;;;;;;;4905905;29;20195;-55
2022/10/21 13:29:31;;;;;;;3.63;2.27;;;;;;;;;;4897593;29;20197;-55
2022/10/21 13:32:16;;;;;;;3.47;2.80;;;;;;;;;;4924809;29;20189;-55
2022/10/21 13:34:53;;;;;;;3.17;2.87;;;;;;;;;;4909247;29;20184;-55
2022/10/21 13:37:30;;;;;;;3.43;2.73;;;;;;;;;;4921435;29;20200;-55
2022/10/21 13:39:59;;;;;;;2.80;2.60;;;;;;;;;;4905064;29;20472;-55
2022/10/21 13:42:36;;;;;;;2.60;2.40;;;;;;;;;;4921324;29;20193;-54
2022/10/21 13:45:04;;;;;;;3.60;2.57;;;;;;;;;;4894636;29;20212;-55
2022/10/21 13:47:32;;;;;;;4.53;3.47;;;;;;;;;;4902984;29;20644;-55
2022/10/21 13:50:13;;;;;;;3.23;3.00;;;;;;;;;;4902109;29;20212;-55
2022/10/21 13:52:42;;;;;;;3.97;3.13;;;;;;;;;;4922621;29;20302;-55
2022/10/21 13:55:16;;;;;;;3.37;3.17;;;;;;;;;;4917573;29;20178;-55
2022/10/21 13:57:50;;;;;;;3.40;2.87;;;;;;;;;;4922562;28;20294;-55
2022/10/21 14:00:22;;;;;;;3.93;3.20;;;;;;;;;;4898367;29;20182;-55
2022/10/21 14:02:50;;;;;;;3.87;3.13;;;;;;;;;;4924450;29;20181;-55
2022/10/21 14:05:30;;;;;;;3.13;2.90;;;;;;;;;;4923423;29;20595;-54
2022/10/21 14:07:56;;;;;;;3.43;3.20;;;;;;;;;;4900714;29;20704;-55
2022/10/21 14:10:22;;;;;;;3.17;2.87;;;;;;;;;;4900977;29;20366;-55
2022/10/21 14:12:49;;;;;;;4.30;3.27;;;;;;;;;;4908889;29;20210;-55
2022/10/21 14:15:18;;;;;;;4.60;3.47;;;;;;;;;;4917335;29;20178;-55
2022/10/21 14:17:48;;;;;;;3.80;3.37;;;;;;;;;;4919738;29;20786;-54
2022/10/21 14:20:20;;;;;;;5.83;5.33;;;;;;;;;;4920498;29;20185;-55
2022/10/21 14:22:48;;;;;;;3.43;3.20;;;;;;;;;;4927977;29;20256;-56
2022/10/21 14:25:15;;;;;;;3.70;3.40;;;;;;;;;;4927907;29;20208;-55
2022/10/21 14:27:45;;;;;;;4.00;3.50;;;;;;;;;;4909595;29;20264;-55
2022/10/21 14:30:17;;;;;;;3.90;3.17;;;;;;;;;;4906438;29;20193;-55
2022/10/21 14:32:43;;;;;;;3.87;3.47;;;;;;;;;;4921807;29;20644;-55
2022/10/21 14:35:10;;;;;;;3.40;3.10;;;;;;;;;;4916643;29;20182;-54
2022/10/21 14:37:42;;;;;;;2.87;2.67;;;;;;;;;;4903491;29;20250;-54
2022/10/21 14:40:20;;;;;;;4.10;3.20;;;;;;;;;;4907591;29;20660;-54
2022/10/21 14:42:46;;;;;;;3.53;3.23;;;;;;;;;;4907538;29;20616;-55
2022/10/21 14:45:17;;;;;;;3.07;2.87;;;;;;;;;;4927518;29;20479;-54
2022/10/21 14:47:57;;;;;;;4.60;3.20;;;;;;;;;;4922980;29;20182;-55
2022/10/21 14:50:23;;;;;;;4.50;3.37;;;;;;;;;;4925264;29;20184;-55
2022/10/21 14:52:51;;;;;;;3.60;3.10;;;;;;;;;;4930181;29;20593;-55
2022/10/21 14:55:27;;;;;;;3.10;2.87;;;;;;;;;;4902771;29;20257;-55
2022/10/21 14:57:55;;;;;;;3.20;2.90;;;;;;;;;;4928463;28;20255;-55
2022/10/21 15:00:24;;;;;;;7.53;3.27;;;;;;;;;;4926495;29;20181;-55
2022/10/21 15:02:52;;;;;;;3.17;2.97;;;;;;;;;;4915561;29;20192;-55